sensor_id;sensor_type;location;lat;lon;timestamp;P1;durP1;ratioP1;P2;durP2;ratioP2
51312;SDS011;37397;53.226;10.400;2023-02-01T00:00:26;33.35;;;5.82;;
51312;SDS011;37397;53.226;10.400;2023-02-01T00:02:53;22.90;;;4.97;;
51312;SDS011;37397;53.226;10.400;2023-02-01T00:05:20;27.42;;;5.25;;
51312;SDS011;37397;53.226;10.400;2023-02-01T00:07:47;25.17;;;4.88;;
51312;SDS011;37397;53.226;10.400;2023-02-01T00:10:15;27.75;;;5.75;;
51312;SDS011;37397;53.226;10.400;2023-02-01T00:12:41;23.92;;;5.22;;
51312;SDS011;37397;53.226;10.400;2023-02-01T00:15:08;28.70;;;4.95;;
51312;SDS011;37397;53.226;10.400;2023-02-01T00:17:35;21.85;;;5.30;;
51312;SDS011;37397;53.226;10.400;2023-02-01T00:20:01;29.38;;;5.68;;
51312;SDS011;37397;53.226;10.400;2023-02-01T00:22:29;28.90;;;5.30;;
51312;SDS011;37397;53.226;10.400;2023-02-01T00:24:55;36.38;;;5.75;;
51312;SDS011;37397;53.226;10.400;2023-02-01T00:27:22;32.05;;;6.57;;
51312;SDS011;37397;53.226;10.400;2023-02-01T00:29:48;25.08;;;5.97;;
51312;SDS011;37397;53.226;10.400;2023-02-01T00:32:15;24.35;;;4.95;;
51312;SDS011;37397;53.226;10.400;2023-02-01T00:34:41;25.83;;;5.35;;
51312;SDS011;37397;53.226;10.400;2023-02-01T00:37:08;22.65;;;5.05;;
51312;SDS011;37397;53.226;10.400;2023-02-01T00:39:34;24.25;;;4.95;;
51312;SDS011;37397;53.226;10.400;2023-02-01T00:42:01;29.75;;;6.10;;
51312;SDS011;37397;53.226;10.400;2023-02-01T00:44:28;34.80;;;5.45;;
51312;SDS011;37397;53.226;10.400;2023-02-01T00:46:59;28.65;;;6.25;;
51312;SDS011;37397;53.226;10.400;2023-02-01T00:49:26;29.90;;;5.88;;
51312;SDS011;37397;53.226;10.400;2023-02-01T00:51:54;27.60;;;5.68;;
51312;SDS011;37397;53.226;10.400;2023-02-01T00:54:20;29.55;;;5.70;;
51312;SDS011;37397;53.226;10.400;2023-02-01T00:56:47;29.92;;;6.18;;
51312;SDS011;37397;53.226;10.400;2023-02-01T00:59:13;35.00;;;6.88;;
51312;SDS011;37397;53.226;10.400;2023-02-01T01:01:40;30.02;;;6.43;;
51312;SDS011;37397;53.226;10.400;2023-02-01T01:04:06;32.75;;;5.53;;
51312;SDS011;37397;53.226;10.400;2023-02-01T01:06:33;39.72;;;6.40;;
51312;SDS011;37397;53.226;10.400;2023-02-01T01:09:03;24.75;;;4.97;;
51312;SDS011;37397;53.226;10.400;2023-02-01T01:11:33;28.90;;;5.78;;
51312;SDS011;37397;53.226;10.400;2023-02-01T01:14:02;42.38;;;7.03;;
51312;SDS011;37397;53.226;10.400;2023-02-01T01:16:30;42.58;;;6.28;;
51312;SDS011;37397;53.226;10.400;2023-02-01T01:18:58;26.73;;;6.20;;
51312;SDS011;37397;53.226;10.400;2023-02-01T01:21:25;29.80;;;6.10;;
51312;SDS011;37397;53.226;10.400;2023-02-01T01:23:52;23.52;;;5.50;;
51312;SDS011;37397;53.226;10.400;2023-02-01T01:26:23;26.27;;;5.80;;
51312;SDS011;37397;53.226;10.400;2023-02-01T01:28:53;40.20;;;7.00;;
51312;SDS011;37397;53.226;10.400;2023-02-01T01:31:21;27.83;;;5.97;;
51312;SDS011;37397;53.226;10.400;2023-02-01T01:33:52;31.60;;;6.60;;
51312;SDS011;37397;53.226;10.400;2023-02-01T01:36:20;30.40;;;5.53;;
51312;SDS011;37397;53.226;10.400;2023-02-01T01:38:47;32.17;;;5.85;;
51312;SDS011;37397;53.226;10.400;2023-02-01T01:41:15;35.13;;;6.78;;
51312;SDS011;37397;53.226;10.400;2023-02-01T01:46:27;33.38;;;6.18;;
51312;SDS011;37397;53.226;10.400;2023-02-01T01:48:58;29.77;;;5.75;;
51312;SDS011;37397;53.226;10.400;2023-02-01T01:51:28;33.90;;;6.60;;
51312;SDS011;37397;53.226;10.400;2023-02-01T01:54:12;36.50;;;6.07;;
51312;SDS011;37397;53.226;10.400;2023-02-01T01:56:43;33.70;;;6.53;;
51312;SDS011;37397;53.226;10.400;2023-02-01T01:59:15;27.20;;;6.32;;
51312;SDS011;37397;53.226;10.400;2023-02-01T02:01:42;32.28;;;6.43;;
51312;SDS011;37397;53.226;10.400;2023-02-01T02:04:08;30.92;;;6.78;;
51312;SDS011;37397;53.226;10.400;2023-02-01T02:06:40;34.80;;;5.53;;
51312;SDS011;37397;53.226;10.400;2023-02-01T02:09:14;35.05;;;5.80;;
51312;SDS011;37397;53.226;10.400;2023-02-01T02:11:42;38.58;;;6.80;;
51312;SDS011;37397;53.226;10.400;2023-02-01T02:14:09;37.83;;;6.32;;
51312;SDS011;37397;53.226;10.400;2023-02-01T02:30:59;39.13;;;7.50;;
51312;SDS011;37397;53.226;10.400;2023-02-01T02:33:51;29.40;;;6.05;;
51312;SDS011;37397;53.226;10.400;2023-02-01T02:39:05;34.05;;;6.70;;
51312;SDS011;37397;53.226;10.400;2023-02-01T02:41:50;34.80;;;5.97;;
51312;SDS011;37397;53.226;10.400;2023-02-01T02:50:38;46.53;;;7.60;;
51312;SDS011;37397;53.226;10.400;2023-02-01T02:53:35;36.30;;;7.15;;
51312;SDS011;37397;53.226;10.400;2023-02-01T02:56:26;31.27;;;6.05;;
51312;SDS011;37397;53.226;10.400;2023-02-01T02:59:12;32.88;;;6.63;;
51312;SDS011;37397;53.226;10.400;2023-02-01T03:02:01;29.55;;;6.00;;
51312;SDS011;37397;53.226;10.400;2023-02-01T03:04:51;33.35;;;6.53;;
51312;SDS011;37397;53.226;10.400;2023-02-01T03:13:04;28.52;;;5.60;;
51312;SDS011;37397;53.226;10.400;2023-02-01T03:15:46;34.42;;;6.47;;
51312;SDS011;37397;53.226;10.400;2023-02-01T03:18:28;32.65;;;5.97;;
51312;SDS011;37397;53.226;10.400;2023-02-01T03:21:09;36.20;;;7.05;;
51312;SDS011;37397;53.226;10.400;2023-02-01T03:23:39;34.30;;;6.15;;
51312;SDS011;37397;53.226;10.400;2023-02-01T03:26:10;32.50;;;5.63;;
51312;SDS011;37397;53.226;10.400;2023-02-01T03:28:39;28.52;;;6.60;;
51312;SDS011;37397;53.226;10.400;2023-02-01T03:31:12;32.33;;;6.20;;
51312;SDS011;37397;53.226;10.400;2023-02-01T03:33:41;32.65;;;5.93;;
51312;SDS011;37397;53.226;10.400;2023-02-01T03:36:25;30.23;;;6.55;;
51312;SDS011;37397;53.226;10.400;2023-02-01T03:39:06;33.05;;;6.35;;
51312;SDS011;37397;53.226;10.400;2023-02-01T03:41:42;26.38;;;5.72;;
51312;SDS011;37397;53.226;10.400;2023-02-01T03:44:19;28.85;;;6.00;;
51312;SDS011;37397;53.226;10.400;2023-02-01T03:46:57;31.05;;;6.35;;
51312;SDS011;37397;53.226;10.400;2023-02-01T03:49:46;27.80;;;5.45;;
51312;SDS011;37397;53.226;10.400;2023-02-01T03:52:22;29.75;;;6.05;;
51312;SDS011;37397;53.226;10.400;2023-02-01T03:54:54;28.17;;;5.78;;
51312;SDS011;37397;53.226;10.400;2023-02-01T03:57:27;24.27;;;5.10;;
51312;SDS011;37397;53.226;10.400;2023-02-01T04:00:03;20.65;;;5.13;;
51312;SDS011;37397;53.226;10.400;2023-02-01T04:02:43;19.17;;;4.47;;
51312;SDS011;37397;53.226;10.400;2023-02-01T04:05:10;17.30;;;4.65;;
51312;SDS011;37397;53.226;10.400;2023-02-01T04:07:42;16.58;;;3.35;;
51312;SDS011;37397;53.226;10.400;2023-02-01T04:10:09;15.65;;;3.28;;
51312;SDS011;37397;53.226;10.400;2023-02-01T04:12:36;15.80;;;3.13;;
51312;SDS011;37397;53.226;10.400;2023-02-01T04:15:03;11.85;;;2.30;;
51312;SDS011;37397;53.226;10.400;2023-02-01T04:17:30;10.98;;;2.72;;
51312;SDS011;37397;53.226;10.400;2023-02-01T04:19:56;9.45;;;2.33;;
51312;SDS011;37397;53.226;10.400;2023-02-01T04:22:23;8.35;;;2.50;;
51312;SDS011;37397;53.226;10.400;2023-02-01T04:24:49;7.43;;;2.10;;
51312;SDS011;37397;53.226;10.400;2023-02-01T04:27:16;4.93;;;1.77;;
51312;SDS011;37397;53.226;10.400;2023-02-01T04:29:42;7.93;;;1.63;;
51312;SDS011;37397;53.226;10.400;2023-02-01T04:32:11;7.50;;;2.25;;
51312;SDS011;37397;53.226;10.400;2023-02-01T04:34:37;7.13;;;1.52;;
51312;SDS011;37397;53.226;10.400;2023-02-01T04:37:04;8.55;;;1.95;;
51312;SDS011;37397;53.226;10.400;2023-02-01T04:39:30;4.40;;;1.60;;
51312;SDS011;37397;53.226;10.400;2023-02-01T04:41:57;7.35;;;1.60;;
51312;SDS011;37397;53.226;10.400;2023-02-01T04:44:23;4.80;;;1.58;;
51312;SDS011;37397;53.226;10.400;2023-02-01T04:46:50;7.28;;;1.65;;
51312;SDS011;37397;53.226;10.400;2023-02-01T04:49:16;7.20;;;1.73;;
51312;SDS011;37397;53.226;10.400;2023-02-01T04:51:43;6.85;;;1.73;;
51312;SDS011;37397;53.226;10.400;2023-02-01T04:54:09;7.45;;;2.10;;
51312;SDS011;37397;53.226;10.400;2023-02-01T04:56:39;7.65;;;1.95;;
51312;SDS011;37397;53.226;10.400;2023-02-01T04:59:06;11.95;;;2.63;;
51312;SDS011;37397;53.226;10.400;2023-02-01T05:01:32;10.68;;;2.88;;
51312;SDS011;37397;53.226;10.400;2023-02-01T05:03:59;11.82;;;2.53;;
51312;SDS011;37397;53.226;10.400;2023-02-01T05:06:25;9.55;;;2.10;;
51312;SDS011;37397;53.226;10.400;2023-02-01T05:08:52;8.88;;;2.20;;
51312;SDS011;37397;53.226;10.400;2023-02-01T05:11:18;9.77;;;2.25;;
51312;SDS011;37397;53.226;10.400;2023-02-01T05:14:03;10.95;;;2.63;;
51312;SDS011;37397;53.226;10.400;2023-02-01T05:16:30;10.68;;;2.15;;
51312;SDS011;37397;53.226;10.400;2023-02-01T05:18:56;9.10;;;2.28;;
51312;SDS011;37397;53.226;10.400;2023-02-01T05:21:23;11.18;;;2.05;;
51312;SDS011;37397;53.226;10.400;2023-02-01T05:23:49;9.23;;;2.25;;
51312;SDS011;37397;53.226;10.400;2023-02-01T05:26:34;7.40;;;1.77;;
51312;SDS011;37397;53.226;10.400;2023-02-01T05:29:01;8.70;;;2.33;;
51312;SDS011;37397;53.226;10.400;2023-02-01T05:31:28;7.60;;;2.08;;
51312;SDS011;37397;53.226;10.400;2023-02-01T05:33:55;6.50;;;2.00;;
51312;SDS011;37397;53.226;10.400;2023-02-01T05:36:22;9.00;;;2.30;;
51312;SDS011;37397;53.226;10.400;2023-02-01T05:38:48;6.95;;;2.20;;
51312;SDS011;37397;53.226;10.400;2023-02-01T05:41:15;7.38;;;2.72;;
51312;SDS011;37397;53.226;10.400;2023-02-01T05:43:41;5.57;;;2.38;;
51312;SDS011;37397;53.226;10.400;2023-02-01T05:46:08;6.57;;;2.05;;
51312;SDS011;37397;53.226;10.400;2023-02-01T05:48:36;6.82;;;2.50;;
51312;SDS011;37397;53.226;10.400;2023-02-01T05:51:03;7.20;;;2.55;;
51312;SDS011;37397;53.226;10.400;2023-02-01T05:53:29;7.25;;;2.28;;
51312;SDS011;37397;53.226;10.400;2023-02-01T05:55:56;6.30;;;1.90;;
51312;SDS011;37397;53.226;10.400;2023-02-01T05:58:22;6.03;;;2.33;;
51312;SDS011;37397;53.226;10.400;2023-02-01T06:00:49;4.90;;;1.90;;
51312;SDS011;37397;53.226;10.400;2023-02-01T06:03:16;4.15;;;2.00;;
51312;SDS011;37397;53.226;10.400;2023-02-01T06:05:46;6.93;;;2.05;;
51312;SDS011;37397;53.226;10.400;2023-02-01T06:08:13;9.90;;;2.28;;
51312;SDS011;37397;53.226;10.400;2023-02-01T06:10:40;5.95;;;1.92;;
51312;SDS011;37397;53.226;10.400;2023-02-01T06:13:07;6.68;;;2.13;;
51312;SDS011;37397;53.226;10.400;2023-02-01T06:15:34;6.53;;;2.30;;
51312;SDS011;37397;53.226;10.400;2023-02-01T06:18:01;3.33;;;1.40;;
51312;SDS011;37397;53.226;10.400;2023-02-01T06:20:28;3.42;;;1.20;;
51312;SDS011;37397;53.226;10.400;2023-02-01T06:22:55;2.78;;;1.25;;
51312;SDS011;37397;53.226;10.400;2023-02-01T06:25:21;3.25;;;1.35;;
51312;SDS011;37397;53.226;10.400;2023-02-01T06:27:48;3.13;;;1.15;;
51312;SDS011;37397;53.226;10.400;2023-02-01T06:30:14;2.78;;;1.23;;
51312;SDS011;37397;53.226;10.400;2023-02-01T06:32:42;2.75;;;1.02;;
51312;SDS011;37397;53.226;10.400;2023-02-01T06:35:09;3.33;;;1.30;;
51312;SDS011;37397;53.226;10.400;2023-02-01T06:37:42;3.57;;;1.30;;
51312;SDS011;37397;53.226;10.400;2023-02-01T06:40:09;3.50;;;1.30;;
51312;SDS011;37397;53.226;10.400;2023-02-01T06:42:36;3.53;;;1.30;;
51312;SDS011;37397;53.226;10.400;2023-02-01T06:45:03;5.13;;;1.50;;
51312;SDS011;37397;53.226;10.400;2023-02-01T06:47:30;4.70;;;1.48;;
51312;SDS011;37397;53.226;10.400;2023-02-01T06:49:56;5.10;;;1.40;;
51312;SDS011;37397;53.226;10.400;2023-02-01T06:52:23;3.75;;;1.33;;
51312;SDS011;37397;53.226;10.400;2023-02-01T06:54:49;4.97;;;1.33;;
51312;SDS011;37397;53.226;10.400;2023-02-01T06:57:16;3.42;;;1.50;;
51312;SDS011;37397;53.226;10.400;2023-02-01T06:59:42;2.70;;;1.50;;
51312;SDS011;37397;53.226;10.400;2023-02-01T07:02:12;6.68;;;1.58;;
51312;SDS011;37397;53.226;10.400;2023-02-01T07:04:38;3.75;;;1.60;;
51312;SDS011;37397;53.226;10.400;2023-02-01T07:07:05;2.55;;;1.30;;
51312;SDS011;37397;53.226;10.400;2023-02-01T07:09:31;4.57;;;1.85;;
51312;SDS011;37397;53.226;10.400;2023-02-01T07:11:58;4.95;;;1.75;;
51312;SDS011;37397;53.226;10.400;2023-02-01T07:14:24;4.65;;;1.42;;
51312;SDS011;37397;53.226;10.400;2023-02-01T07:16:51;3.92;;;1.52;;
51312;SDS011;37397;53.226;10.400;2023-02-01T07:19:17;7.40;;;2.10;;
51312;SDS011;37397;53.226;10.400;2023-02-01T07:21:43;3.95;;;1.88;;
51312;SDS011;37397;53.226;10.400;2023-02-01T07:24:10;5.55;;;1.55;;
51312;SDS011;37397;53.226;10.400;2023-02-01T07:26:37;6.50;;;1.48;;
51312;SDS011;37397;53.226;10.400;2023-02-01T07:29:03;5.15;;;1.75;;
51312;SDS011;37397;53.226;10.400;2023-02-01T07:31:30;6.75;;;1.70;;
51312;SDS011;37397;53.226;10.400;2023-02-01T07:33:57;5.13;;;2.08;;
51312;SDS011;37397;53.226;10.400;2023-02-01T07:36:24;8.65;;;2.38;;
51312;SDS011;37397;53.226;10.400;2023-02-01T07:38:50;7.70;;;2.58;;
51312;SDS011;37397;53.226;10.400;2023-02-01T07:41:21;11.52;;;2.88;;
51312;SDS011;37397;53.226;10.400;2023-02-01T07:43:48;11.85;;;2.65;;
51312;SDS011;37397;53.226;10.400;2023-02-01T07:46:16;9.85;;;2.58;;
51312;SDS011;37397;53.226;10.400;2023-02-01T07:48:43;13.70;;;3.40;;
51312;SDS011;37397;53.226;10.400;2023-02-01T07:51:13;10.98;;;2.47;;
51312;SDS011;37397;53.226;10.400;2023-02-01T07:53:41;14.48;;;3.30;;
51312;SDS011;37397;53.226;10.400;2023-02-01T07:56:15;15.05;;;2.88;;
51312;SDS011;37397;53.226;10.400;2023-02-01T07:58:51;11.52;;;2.85;;
51312;SDS011;37397;53.226;10.400;2023-02-01T08:01:21;13.80;;;2.95;;
51312;SDS011;37397;53.226;10.400;2023-02-01T08:03:52;12.82;;;2.80;;
51312;SDS011;37397;53.226;10.400;2023-02-01T08:06:23;17.42;;;3.58;;
51312;SDS011;37397;53.226;10.400;2023-02-01T08:08:50;19.00;;;3.58;;
51312;SDS011;37397;53.226;10.400;2023-02-01T08:11:18;21.15;;;4.97;;
51312;SDS011;37397;53.226;10.400;2023-02-01T08:13:46;17.67;;;3.47;;
51312;SDS011;37397;53.226;10.400;2023-02-01T08:16:14;19.33;;;3.85;;
51312;SDS011;37397;53.226;10.400;2023-02-01T08:18:42;17.48;;;3.92;;
51312;SDS011;37397;53.226;10.400;2023-02-01T08:23:38;18.00;;;3.45;;
51312;SDS011;37397;53.226;10.400;2023-02-01T08:28:36;17.60;;;4.03;;
51312;SDS011;37397;53.226;10.400;2023-02-01T08:31:04;28.38;;;5.03;;
51312;SDS011;37397;53.226;10.400;2023-02-01T08:33:33;16.38;;;4.15;;
51312;SDS011;37397;53.226;10.400;2023-02-01T08:36:01;18.63;;;3.97;;
51312;SDS011;37397;53.226;10.400;2023-02-01T08:38:28;14.43;;;3.80;;
51312;SDS011;37397;53.226;10.400;2023-02-01T08:40:55;20.00;;;4.00;;
51312;SDS011;37397;53.226;10.400;2023-02-01T08:43:21;22.15;;;4.22;;
51312;SDS011;37397;53.226;10.400;2023-02-01T08:45:48;19.08;;;4.43;;
51312;SDS011;37397;53.226;10.400;2023-02-01T08:48:16;22.92;;;4.53;;
51312;SDS011;37397;53.226;10.400;2023-02-01T08:50:42;21.95;;;4.07;;
51312;SDS011;37397;53.226;10.400;2023-02-01T08:53:09;19.08;;;4.05;;
51312;SDS011;37397;53.226;10.400;2023-02-01T08:55:35;24.60;;;3.92;;
51312;SDS011;37397;53.226;10.400;2023-02-01T08:58:02;19.75;;;4.30;;
51312;SDS011;37397;53.226;10.400;2023-02-01T09:00:28;28.30;;;5.20;;
51312;SDS011;37397;53.226;10.400;2023-02-01T09:02:55;21.75;;;5.28;;
51312;SDS011;37397;53.226;10.400;2023-02-01T09:05:22;31.95;;;5.13;;
51312;SDS011;37397;53.226;10.400;2023-02-01T09:08:00;28.02;;;4.93;;
51312;SDS011;37397;53.226;10.400;2023-02-01T09:10:26;27.52;;;5.90;;
51312;SDS011;37397;53.226;10.400;2023-02-01T09:13:00;27.73;;;6.10;;
51312;SDS011;37397;53.226;10.400;2023-02-01T09:15:27;25.23;;;5.18;;
51312;SDS011;37397;53.226;10.400;2023-02-01T09:17:53;29.95;;;4.93;;
51312;SDS011;37397;53.226;10.400;2023-02-01T09:20:20;22.55;;;5.18;;
51312;SDS011;37397;53.226;10.400;2023-02-01T09:22:51;26.73;;;4.47;;
51312;SDS011;37397;53.226;10.400;2023-02-01T09:25:18;22.65;;;5.03;;
51312;SDS011;37397;53.226;10.400;2023-02-01T09:27:45;19.75;;;4.85;;
51312;SDS011;37397;53.226;10.400;2023-02-01T09:30:11;35.28;;;5.05;;
51312;SDS011;37397;53.226;10.400;2023-02-01T09:32:38;27.27;;;4.57;;
51312;SDS011;37397;53.226;10.400;2023-02-01T09:35:05;23.23;;;4.50;;
51312;SDS011;37397;53.226;10.400;2023-02-01T09:37:31;28.75;;;5.57;;
51312;SDS011;37397;53.226;10.400;2023-02-01T09:39:59;21.25;;;5.07;;
51312;SDS011;37397;53.226;10.400;2023-02-01T09:47:45;22.05;;;4.55;;
51312;SDS011;37397;53.226;10.400;2023-02-01T09:50:19;24.30;;;4.68;;
51312;SDS011;37397;53.226;10.400;2023-02-01T09:55:22;24.10;;;4.95;;
51312;SDS011;37397;53.226;10.400;2023-02-01T09:58:07;27.20;;;4.65;;
51312;SDS011;37397;53.226;10.400;2023-02-01T10:00:38;25.95;;;5.22;;
51312;SDS011;37397;53.226;10.400;2023-02-01T10:03:09;26.70;;;4.07;;
51312;SDS011;37397;53.226;10.400;2023-02-01T10:05:44;27.00;;;4.47;;
51312;SDS011;37397;53.226;10.400;2023-02-01T10:23:30;21.90;;;4.38;;
51312;SDS011;37397;53.226;10.400;2023-02-01T10:26:18;23.77;;;4.53;;
51312;SDS011;37397;53.226;10.400;2023-02-01T10:28:50;27.10;;;5.40;;
51312;SDS011;37397;53.226;10.400;2023-02-01T10:31:18;21.85;;;5.20;;
51312;SDS011;37397;53.226;10.400;2023-02-01T10:33:52;23.02;;;5.07;;
51312;SDS011;37397;53.226;10.400;2023-02-01T10:36:25;22.67;;;5.25;;
51312;SDS011;37397;53.226;10.400;2023-02-01T10:38:57;27.95;;;5.00;;
51312;SDS011;37397;53.226;10.400;2023-02-01T10:41:29;25.77;;;4.75;;
51312;SDS011;37397;53.226;10.400;2023-02-01T10:43:58;20.38;;;4.88;;
51312;SDS011;37397;53.226;10.400;2023-02-01T10:46:29;37.13;;;5.18;;
51312;SDS011;37397;53.226;10.400;2023-02-01T10:48:57;25.35;;;5.07;;
51312;SDS011;37397;53.226;10.400;2023-02-01T10:51:42;25.10;;;3.78;;
51312;SDS011;37397;53.226;10.400;2023-02-01T10:54:20;17.95;;;4.88;;
51312;SDS011;37397;53.226;10.400;2023-02-01T10:56:49;21.45;;;4.47;;
51312;SDS011;37397;53.226;10.400;2023-02-01T10:59:18;25.85;;;5.07;;
51312;SDS011;37397;53.226;10.400;2023-02-01T11:01:47;19.40;;;4.35;;
51312;SDS011;37397;53.226;10.400;2023-02-01T11:04:18;24.15;;;4.38;;
51312;SDS011;37397;53.226;10.400;2023-02-01T11:06:48;19.85;;;4.25;;
51312;SDS011;37397;53.226;10.400;2023-02-01T11:14:14;21.10;;;4.68;;
51312;SDS011;37397;53.226;10.400;2023-02-01T11:17:12;25.25;;;4.13;;
51312;SDS011;37397;53.226;10.400;2023-02-01T11:19:45;26.42;;;4.63;;
51312;SDS011;37397;53.226;10.400;2023-02-01T11:22:13;28.80;;;5.05;;
51312;SDS011;37397;53.226;10.400;2023-02-01T11:24:40;27.63;;;5.10;;
51312;SDS011;37397;53.226;10.400;2023-02-01T11:27:16;26.02;;;4.47;;
51312;SDS011;37397;53.226;10.400;2023-02-01T11:29:54;20.83;;;3.72;;
51312;SDS011;37397;53.226;10.400;2023-02-01T11:32:25;27.77;;;4.22;;
51312;SDS011;37397;53.226;10.400;2023-02-01T11:37:27;22.73;;;4.82;;
51312;SDS011;37397;53.226;10.400;2023-02-01T11:42:59;21.55;;;4.43;;
51312;SDS011;37397;53.226;10.400;2023-02-01T11:45:33;25.70;;;5.20;;
51312;SDS011;37397;53.226;10.400;2023-02-01T11:48:01;15.45;;;4.15;;
51312;SDS011;37397;53.226;10.400;2023-02-01T11:50:36;20.13;;;5.10;;
51312;SDS011;37397;53.226;10.400;2023-02-01T11:55:50;18.40;;;4.18;;
51312;SDS011;37397;53.226;10.400;2023-02-01T12:06:50;24.42;;;4.80;;
51312;SDS011;37397;53.226;10.400;2023-02-01T12:09:22;15.68;;;4.18;;
51312;SDS011;37397;53.226;10.400;2023-02-01T12:12:19;22.40;;;5.30;;
51312;SDS011;37397;53.226;10.400;2023-02-01T12:17:45;27.55;;;5.20;;
51312;SDS011;37397;53.226;10.400;2023-02-01T12:25:56;14.60;;;3.15;;
51312;SDS011;37397;53.226;10.400;2023-02-01T12:31:34;11.73;;;3.15;;
51312;SDS011;37397;53.226;10.400;2023-02-01T12:34:17;9.43;;;2.47;;
51312;SDS011;37397;53.226;10.400;2023-02-01T12:43:28;9.10;;;2.40;;
51312;SDS011;37397;53.226;10.400;2023-02-01T12:46:16;10.23;;;2.33;;
51312;SDS011;37397;53.226;10.400;2023-02-01T12:51:36;7.80;;;2.08;;
51312;SDS011;37397;53.226;10.400;2023-02-01T12:56:39;6.18;;;1.90;;
51312;SDS011;37397;53.226;10.400;2023-02-01T13:02:08;6.55;;;1.90;;
51312;SDS011;37397;53.226;10.400;2023-02-01T13:04:54;6.95;;;1.98;;
51312;SDS011;37397;53.226;10.400;2023-02-01T13:07:23;3.63;;;1.85;;
51312;SDS011;37397;53.226;10.400;2023-02-01T13:09:56;5.55;;;1.50;;
51312;SDS011;37397;53.226;10.400;2023-02-01T13:15:10;5.35;;;1.48;;
51312;SDS011;37397;53.226;10.400;2023-02-01T13:17:43;3.50;;;1.50;;
51312;SDS011;37397;53.226;10.400;2023-02-01T13:20:29;2.90;;;1.42;;
51312;SDS011;37397;53.226;10.400;2023-02-01T13:23:03;4.25;;;1.55;;
51312;SDS011;37397;53.226;10.400;2023-02-01T13:25:40;5.60;;;1.35;;
51312;SDS011;37397;53.226;10.400;2023-02-01T13:28:16;3.78;;;1.30;;
51312;SDS011;37397;53.226;10.400;2023-02-01T13:45:19;2.03;;;1.13;;
51312;SDS011;37397;53.226;10.400;2023-02-01T13:47:50;1.58;;;1.10;;
51312;SDS011;37397;53.226;10.400;2023-02-01T13:50:26;1.00;;;1.00;;
51312;SDS011;37397;53.226;10.400;2023-02-01T13:52:57;1.45;;;1.00;;
51312;SDS011;37397;53.226;10.400;2023-02-01T13:55:30;1.92;;;0.90;;
51312;SDS011;37397;53.226;10.400;2023-02-01T13:58:03;1.88;;;1.13;;
51312;SDS011;37397;53.226;10.400;2023-02-01T14:00:40;1.23;;;1.13;;
51312;SDS011;37397;53.226;10.400;2023-02-01T14:03:11;1.05;;;1.00;;
51312;SDS011;37397;53.226;10.400;2023-02-01T14:08:10;1.02;;;0.88;;
51312;SDS011;37397;53.226;10.400;2023-02-01T14:21:19;1.02;;;1.00;;
51312;SDS011;37397;53.226;10.400;2023-02-01T14:32:00;1.90;;;1.17;;
51312;SDS011;37397;53.226;10.400;2023-02-01T14:42:38;7.32;;;1.83;;
51312;SDS011;37397;53.226;10.400;2023-02-01T14:47:49;8.95;;;2.60;;
51312;SDS011;37397;53.226;10.400;2023-02-01T14:53:04;9.95;;;2.40;;
51312;SDS011;37397;53.226;10.400;2023-02-01T14:55:46;8.60;;;2.60;;
51312;SDS011;37397;53.226;10.400;2023-02-01T15:01:18;6.97;;;2.40;;
51312;SDS011;37397;53.226;10.400;2023-02-01T15:03:57;6.88;;;2.42;;
51312;SDS011;37397;53.226;10.400;2023-02-01T15:06:42;8.57;;;2.25;;
51312;SDS011;37397;53.226;10.400;2023-02-01T15:09:31;12.43;;;2.47;;
51312;SDS011;37397;53.226;10.400;2023-02-01T15:14:42;7.78;;;1.90;;
51312;SDS011;37397;53.226;10.400;2023-02-01T15:17:20;7.90;;;1.98;;
51312;SDS011;37397;53.226;10.400;2023-02-01T15:19:55;6.07;;;1.70;;
51312;SDS011;37397;53.226;10.400;2023-02-01T15:22:34;5.15;;;1.80;;
51312;SDS011;37397;53.226;10.400;2023-02-01T15:25:01;5.72;;;1.80;;
51312;SDS011;37397;53.226;10.400;2023-02-01T15:27:29;8.30;;;2.03;;
51312;SDS011;37397;53.226;10.400;2023-02-01T15:30:07;5.68;;;1.90;;
51312;SDS011;37397;53.226;10.400;2023-02-01T15:32:36;6.25;;;1.60;;
51312;SDS011;37397;53.226;10.400;2023-02-01T15:40:56;7.70;;;1.90;;
51312;SDS011;37397;53.226;10.400;2023-02-01T15:43:29;6.95;;;1.85;;
51312;SDS011;37397;53.226;10.400;2023-02-01T15:45:59;9.48;;;1.88;;
51312;SDS011;37397;53.226;10.400;2023-02-01T15:48:32;12.43;;;1.90;;
51312;SDS011;37397;53.226;10.400;2023-02-01T15:51:04;8.63;;;2.55;;
51312;SDS011;37397;53.226;10.400;2023-02-01T15:53:31;9.57;;;2.10;;
51312;SDS011;37397;53.226;10.400;2023-02-01T15:55:59;11.98;;;2.25;;
51312;SDS011;37397;53.226;10.400;2023-02-01T15:58:29;7.38;;;2.00;;
51312;SDS011;37397;53.226;10.400;2023-02-01T16:00:59;8.85;;;2.10;;
51312;SDS011;37397;53.226;10.400;2023-02-01T16:03:33;12.55;;;2.63;;
51312;SDS011;37397;53.226;10.400;2023-02-01T16:06:27;13.32;;;4.18;;
51312;SDS011;37397;53.226;10.400;2023-02-01T16:08:52;10.50;;;2.58;;
51312;SDS011;37397;53.226;10.400;2023-02-01T16:11:22;14.77;;;3.47;;
51312;SDS011;37397;53.226;10.400;2023-02-01T16:13:49;11.50;;;2.80;;
51312;SDS011;37397;53.226;10.400;2023-02-01T16:16:15;13.50;;;2.78;;
51312;SDS011;37397;53.226;10.400;2023-02-01T16:18:42;11.93;;;2.85;;
51312;SDS011;37397;53.226;10.400;2023-02-01T16:21:09;17.05;;;3.22;;
51312;SDS011;37397;53.226;10.400;2023-02-01T16:23:35;9.15;;;2.85;;
51312;SDS011;37397;53.226;10.400;2023-02-01T16:26:05;12.90;;;3.72;;
51312;SDS011;37397;53.226;10.400;2023-02-01T16:28:33;16.73;;;3.70;;
51312;SDS011;37397;53.226;10.400;2023-02-01T16:31:00;15.48;;;3.92;;
51312;SDS011;37397;53.226;10.400;2023-02-01T16:33:27;12.50;;;3.75;;
51312;SDS011;37397;53.226;10.400;2023-02-01T16:35:55;16.40;;;3.70;;
51312;SDS011;37397;53.226;10.400;2023-02-01T16:38:23;13.32;;;3.10;;
51312;SDS011;37397;53.226;10.400;2023-02-01T16:40:50;13.23;;;3.80;;
51312;SDS011;37397;53.226;10.400;2023-02-01T16:43:23;10.68;;;2.80;;
51312;SDS011;37397;53.226;10.400;2023-02-01T16:45:53;13.27;;;3.78;;
51312;SDS011;37397;53.226;10.400;2023-02-01T16:48:26;14.35;;;4.13;;
51312;SDS011;37397;53.226;10.400;2023-02-01T16:50:56;15.18;;;3.80;;
51312;SDS011;37397;53.226;10.400;2023-02-01T16:53:27;15.88;;;3.70;;
51312;SDS011;37397;53.226;10.400;2023-02-01T16:55:56;14.05;;;3.65;;
51312;SDS011;37397;53.226;10.400;2023-02-01T16:58:26;15.82;;;3.95;;
51312;SDS011;37397;53.226;10.400;2023-02-01T17:00:53;14.63;;;3.88;;
51312;SDS011;37397;53.226;10.400;2023-02-01T17:03:20;12.38;;;3.55;;
51312;SDS011;37397;53.226;10.400;2023-02-01T17:05:49;15.38;;;4.35;;
51312;SDS011;37397;53.226;10.400;2023-02-01T17:08:19;16.27;;;4.05;;
51312;SDS011;37397;53.226;10.400;2023-02-01T17:10:53;21.58;;;4.03;;
51312;SDS011;37397;53.226;10.400;2023-02-01T17:13:19;20.10;;;4.10;;
51312;SDS011;37397;53.226;10.400;2023-02-01T17:15:51;15.00;;;3.60;;
51312;SDS011;37397;53.226;10.400;2023-02-01T17:20:47;19.73;;;3.60;;
51312;SDS011;37397;53.226;10.400;2023-02-01T17:23:15;25.15;;;4.57;;
51312;SDS011;37397;53.226;10.400;2023-02-01T17:25:42;22.55;;;4.50;;
51312;SDS011;37397;53.226;10.400;2023-02-01T17:28:08;22.38;;;4.97;;
51312;SDS011;37397;53.226;10.400;2023-02-01T17:30:36;22.35;;;4.90;;
51312;SDS011;37397;53.226;10.400;2023-02-01T17:33:08;18.90;;;4.63;;
51312;SDS011;37397;53.226;10.400;2023-02-01T17:35:48;22.55;;;4.95;;
51312;SDS011;37397;53.226;10.400;2023-02-01T17:38:15;23.77;;;4.80;;